Terminal Aerodrome Forecast
Issued by NWS Wakefield, VA

Home | Current Version | Previous Version | Text Only | Print | Product List | Glossary On
Versions: 1 2 3 4 5 6 7 8 9 10 11 12 13 14 15 16 17 18 19 20 21 22 23 24 25 26
000
FTUS41 KAKQ 241733
TAFSBY
TAF
KSBY 241733Z 2418/2518 06015G23KT 5SM -RA BR SCT012 OVC029
      TEMPO 2418/2420 BKN012
     FM242000 06014G22KT 3SM -RA OVC008
     FM250200 07014G21KT 3SM -RA OVC005
     FM250600 07013G20KT 3SM -SHRA OVC006
     FM251000 08013G20KT 3SM SHRA OVC008
     FM251300 09015G24KT 3SM SHRA OVC006 WS020/10045KT
     FM251400 09017G26KT 3SM SHRA OVC006=

USA.gov is the U.S. government's official web portal to all federal, state and local government web resources and services.